Atlas, MI

10:35 AM EST on December 22, 2014 (GMT -0500)
Kelbel Weather | Change Station
CLOSE
Current Station
Personal Weather Station
Location: Goodrich, MI
Elevation: 892 ft
Nearby Weather Stations

Elev 892 ft 42.93 °N, 83.47 °W | Updated 5 minutes ago

Partly Cloudy
Partly Cloudy
33.4 °F
Feels Like 30 °F
N
3.7
Wind Variable Wind from East

Today
High -- | Low -- °F
--% Chance of Precip.
Yesterday
High -- | Low -- °F
Precip. -- in
8:02 AM 5:03 PM
New Moon, 0% visible
Pressure 30.11 in
Visibility 6.0 miles
Clouds Clear
Windchill 30 °F
Dew Point 26 °F
Humidity 74%
Rainfall 0.00 in
Snow Depth Not available.
UV 1 out of 12
Pollen .10 out of 12
Air Quality Not available.
Flu Activity Not available.
METAR KFNT 221453Z 15009KT 6SM HZ CLR 01/M04 A3009 RMK AO2 SLP196 T00061039 57003

More Conditions Fewer Conditions

Pressure 30.11 in
Visibility 6.0 miles
Clouds Clear
Windchill 30 °F
Dew Point 26 °F
Humidity 74%
Rainfall 0.00 in
Snow Depth Not available.
UV 1 out of 12
Pollen .10 out of 12
Air Quality Not available.
Flu Activity Not available.
METAR KFNT 221453Z 15009KT 6SM HZ CLR 01/M04 A3009 RMK AO2 SLP196 T00061039 57003

More Conditions Fewer Conditions

10-Day Weather Forecast

Almanac

Astronomy

Dec. 22, 2014 Rise Set
Actual Time
Civil Twilight
Nautical Twilight
Astronomical Twilight
Moon
Length of Visible Light
Length of Day
Tomorrow will be .
, % of the Moon is Illuminated

Today's Extremes

State Highs State Lows

Community

WunderPhotos

Upload Photos

1,779,619 photos uploaded!

WunderBlogs® & News

Nearby

Air Quality

  Air Quality AQ Index Pollutant
Not available.

Snow Depth

Station Depth Elevation

Earthquake Activity

City Distance Mag. Time & Date
Minimum magnitude displayed is 2.5.

Coastal Water Temperatures

Place Temperature

Nearby Weather Stations